sensor_id;sensor_type;location;lat;lon;timestamp;pressure;altitude;pressure_sealevel;temperature;humidity
19590;BME280;12231;42.782;23.388;2023-03-21T00:00:25;95411.19;;;11.97;60.15
19590;BME280;12231;42.782;23.388;2023-03-21T00:02:50;95409.09;;;12.14;59.08
19590;BME280;12231;42.782;23.388;2023-03-21T00:05:16;95405.84;;;12.23;58.24
19590;BME280;12231;42.782;23.388;2023-03-21T00:07:41;95393.78;;;12.24;58.09
19590;BME280;12231;42.782;23.388;2023-03-21T00:10:07;95391.81;;;12.15;58.04
19590;BME280;12231;42.782;23.388;2023-03-21T00:12:33;95398.00;;;12.25;58.69
19590;BME280;12231;42.782;23.388;2023-03-21T00:15:06;95390.03;;;12.40;58.04
19590;BME280;12231;42.782;23.388;2023-03-21T00:17:33;95402.72;;;12.43;58.90
19590;BME280;12231;42.782;23.388;2023-03-21T00:20:02;95397.44;;;12.45;58.90
19590;BME280;12231;42.782;23.388;2023-03-21T00:22:34;95397.94;;;12.50;59.21
19590;BME280;12231;42.782;23.388;2023-03-21T00:25:00;95402.47;;;12.59;59.42
19590;BME280;12231;42.782;23.388;2023-03-21T00:27:26;95410.22;;;12.59;58.86
19590;BME280;12231;42.782;23.388;2023-03-21T00:29:52;95406.50;;;12.63;59.37
19590;BME280;12231;42.782;23.388;2023-03-21T00:32:20;95408.47;;;12.11;63.88
19590;BME280;12231;42.782;23.388;2023-03-21T00:34:46;95398.63;;;12.28;62.51
19590;BME280;12231;42.782;23.388;2023-03-21T00:37:12;95404.50;;;12.30;62.80
19590;BME280;12231;42.782;23.388;2023-03-21T00:39:41;95408.44;;;12.23;63.64
19590;BME280;12231;42.782;23.388;2023-03-21T00:42:07;95407.72;;;12.34;63.83
19590;BME280;12231;42.782;23.388;2023-03-21T00:44:33;95406.78;;;12.35;64.45
19590;BME280;12231;42.782;23.388;2023-03-21T00:47:03;95411.53;;;12.28;65.32
19590;BME280;12231;42.782;23.388;2023-03-21T00:49:30;95409.28;;;12.24;65.29
19590;BME280;12231;42.782;23.388;2023-03-21T00:52:06;95403.09;;;12.14;65.77
19590;BME280;12231;42.782;23.388;2023-03-21T00:54:33;95395.25;;;12.03;66.21
19590;BME280;12231;42.782;23.388;2023-03-21T00:56:58;95389.69;;;11.84;66.45
19590;BME280;12231;42.782;23.388;2023-03-21T00:59:25;95384.63;;;11.70;65.69
19590;BME280;12231;42.782;23.388;2023-03-21T01:01:51;95386.59;;;11.79;66.29
19590;BME280;12231;42.782;23.388;2023-03-21T01:04:18;95395.03;;;11.81;66.49
19590;BME280;12231;42.782;23.388;2023-03-21T01:06:46;95393.50;;;11.78;66.91
19590;BME280;12231;42.782;23.388;2023-03-21T01:09:15;95396.69;;;11.69;67.70
19590;BME280;12231;42.782;23.388;2023-03-21T01:11:41;95401.25;;;11.66;67.32
19590;BME280;12231;42.782;23.388;2023-03-21T01:14:08;95397.72;;;11.54;68.45
19590;BME280;12231;42.782;23.388;2023-03-21T01:16:34;95392.50;;;11.29;70.25
19590;BME280;12231;42.782;23.388;2023-03-21T01:19:00;95390.53;;;11.20;71.10
19590;BME280;12231;42.782;23.388;2023-03-21T01:21:25;95382.25;;;11.15;71.98
19590;BME280;12231;42.782;23.388;2023-03-21T01:23:51;95394.84;;;11.07;73.15
19590;BME280;12231;42.782;23.388;2023-03-21T01:26:16;95397.47;;;10.93;74.37
19590;BME280;12231;42.782;23.388;2023-03-21T01:28:42;95394.84;;;10.80;75.01
19590;BME280;12231;42.782;23.388;2023-03-21T01:31:11;95394.59;;;10.71;75.86
19590;BME280;12231;42.782;23.388;2023-03-21T01:33:37;95395.09;;;10.63;76.17
19590;BME280;12231;42.782;23.388;2023-03-21T01:36:02;95383.19;;;10.48;76.58
19590;BME280;12231;42.782;23.388;2023-03-21T01:38:28;95388.63;;;10.44;77.24
19590;BME280;12231;42.782;23.388;2023-03-21T01:40:54;95389.63;;;10.41;77.81
19590;BME280;12231;42.782;23.388;2023-03-21T01:43:29;95380.44;;;10.37;77.62
19590;BME280;12231;42.782;23.388;2023-03-21T01:48:54;95388.47;;;10.19;79.03
19590;BME280;12231;42.782;23.388;2023-03-21T01:51:22;95385.78;;;10.20;79.26
19590;BME280;12231;42.782;23.388;2023-03-21T01:53:49;95388.91;;;10.25;79.39
19590;BME280;12231;42.782;23.388;2023-03-21T01:56:28;95378.06;;;10.20;80.08
19590;BME280;12231;42.782;23.388;2023-03-21T01:58:59;95382.69;;;10.15;79.99
19590;BME280;12231;42.782;23.388;2023-03-21T02:01:29;95383.41;;;10.17;80.35
19590;BME280;12231;42.782;23.388;2023-03-21T02:03:56;95380.19;;;10.14;80.91
19590;BME280;12231;42.782;23.388;2023-03-21T02:06:28;95391.72;;;10.08;80.75
19590;BME280;12231;42.782;23.388;2023-03-21T02:08:58;95392.03;;;10.02;81.40
19590;BME280;12231;42.782;23.388;2023-03-21T02:11:25;95389.66;;;9.99;81.54
19590;BME280;12231;42.782;23.388;2023-03-21T02:13:51;95391.66;;;9.94;81.15
19590;BME280;12231;42.782;23.388;2023-03-21T02:16:35;95394.06;;;9.69;82.34
19590;BME280;12231;42.782;23.388;2023-03-21T02:28:06;95366.31;;;9.60;84.79
19590;BME280;12231;42.782;23.388;2023-03-21T02:41:15;95373.66;;;9.66;84.78
19590;BME280;12231;42.782;23.388;2023-03-21T02:43:49;95376.59;;;9.60;83.49
19590;BME280;12231;42.782;23.388;2023-03-21T02:46:18;95375.22;;;9.54;83.58
19590;BME280;12231;42.782;23.388;2023-03-21T02:49:07;95376.50;;;9.47;83.34
19590;BME280;12231;42.782;23.388;2023-03-21T02:51:36;95378.22;;;9.47;82.86
19590;BME280;12231;42.782;23.388;2023-03-21T02:54:11;95381.44;;;9.36;83.31
19590;BME280;12231;42.782;23.388;2023-03-21T02:56:38;95383.28;;;9.34;83.82
19590;BME280;12231;42.782;23.388;2023-03-21T02:59:05;95373.97;;;9.18;84.40
19590;BME280;12231;42.782;23.388;2023-03-21T03:01:32;95377.28;;;9.20;84.42
19590;BME280;12231;42.782;23.388;2023-03-21T03:03:57;95379.00;;;9.19;84.18
19590;BME280;12231;42.782;23.388;2023-03-21T03:06:27;95376.44;;;9.19;84.60
19590;BME280;12231;42.782;23.388;2023-03-21T03:09:16;95377.75;;;8.97;86.19
19590;BME280;12231;42.782;23.388;2023-03-21T03:11:44;95385.00;;;8.90;86.88
19590;BME280;12231;42.782;23.388;2023-03-21T03:19:27;95380.72;;;8.75;88.14
19590;BME280;12231;42.782;23.388;2023-03-21T03:22:00;95381.53;;;8.76;88.13
19590;BME280;12231;42.782;23.388;2023-03-21T03:24:35;95387.25;;;8.65;88.10
19590;BME280;12231;42.782;23.388;2023-03-21T03:29:34;95394.03;;;8.52;89.43
19590;BME280;12231;42.782;23.388;2023-03-21T03:32:11;95401.78;;;8.51;88.97
19590;BME280;12231;42.782;23.388;2023-03-21T03:34:41;95391.84;;;8.45;89.37
19590;BME280;12231;42.782;23.388;2023-03-21T03:37:11;95393.09;;;8.38;90.28
19590;BME280;12231;42.782;23.388;2023-03-21T03:39:42;95393.34;;;8.33;90.07
19590;BME280;12231;42.782;23.388;2023-03-21T03:42:24;95388.72;;;8.24;90.38
19590;BME280;12231;42.782;23.388;2023-03-21T03:44:53;95387.19;;;8.20;90.44
19590;BME280;12231;42.782;23.388;2023-03-21T03:47:33;95391.31;;;8.07;91.26
19590;BME280;12231;42.782;23.388;2023-03-21T03:50:09;95394.63;;;8.09;91.62
19590;BME280;12231;42.782;23.388;2023-03-21T03:52:40;95387.78;;;8.09;91.55
19590;BME280;12231;42.782;23.388;2023-03-21T03:55:09;95385.81;;;8.30;94.75
19590;BME280;12231;42.782;23.388;2023-03-21T03:57:36;95378.38;;;8.25;94.78
19590;BME280;12231;42.782;23.388;2023-03-21T04:00:02;95385.47;;;8.20;94.21
19590;BME280;12231;42.782;23.388;2023-03-21T04:02:33;95389.91;;;8.17;93.38
19590;BME280;12231;42.782;23.388;2023-03-21T04:04:58;95388.53;;;8.11;92.83
19590;BME280;12231;42.782;23.388;2023-03-21T04:07:25;95402.66;;;8.03;92.52
19590;BME280;12231;42.782;23.388;2023-03-21T04:09:51;95395.78;;;8.03;92.17
19590;BME280;12231;42.782;23.388;2023-03-21T04:12:17;95391.56;;;8.02;91.68
19590;BME280;12231;42.782;23.388;2023-03-21T04:14:42;95390.81;;;8.00;92.16
19590;BME280;12231;42.782;23.388;2023-03-21T04:17:08;95391.66;;;7.85;92.20
19590;BME280;12231;42.782;23.388;2023-03-21T04:19:33;95384.06;;;7.82;92.63
19590;BME280;12231;42.782;23.388;2023-03-21T04:21:58;95394.66;;;7.61;93.94
19590;BME280;12231;42.782;23.388;2023-03-21T04:24:24;95382.63;;;7.61;94.45
19590;BME280;12231;42.782;23.388;2023-03-21T04:26:49;95388.91;;;7.56;95.07
19590;BME280;12231;42.782;23.388;2023-03-21T04:29:18;95383.78;;;7.56;94.58
19590;BME280;12231;42.782;23.388;2023-03-21T04:31:44;95379.75;;;7.35;96.41
19590;BME280;12231;42.782;23.388;2023-03-21T04:34:10;95381.19;;;7.23;96.83
19590;BME280;12231;42.782;23.388;2023-03-21T04:36:37;95388.28;;;7.18;96.49
19590;BME280;12231;42.782;23.388;2023-03-21T04:39:13;95384.53;;;7.08;96.53
19590;BME280;12231;42.782;23.388;2023-03-21T04:41:39;95382.13;;;7.05;96.42
19590;BME280;12231;42.782;23.388;2023-03-21T04:44:05;95385.50;;;6.88;96.88
19590;BME280;12231;42.782;23.388;2023-03-21T04:46:32;95385.78;;;6.99;98.98
19590;BME280;12231;42.782;23.388;2023-03-21T04:48:58;95395.44;;;6.94;99.87
19590;BME280;12231;42.782;23.388;2023-03-21T04:51:23;95400.19;;;7.02;99.64
19590;BME280;12231;42.782;23.388;2023-03-21T04:53:49;95386.47;;;7.20;98.83
19590;BME280;12231;42.782;23.388;2023-03-21T04:56:17;95397.47;;;7.39;99.03
19590;BME280;12231;42.782;23.388;2023-03-21T04:58:43;95402.69;;;7.70;99.11
19590;BME280;12231;42.782;23.388;2023-03-21T05:01:08;95394.56;;;8.10;97.66
19590;BME280;12231;42.782;23.388;2023-03-21T05:03:34;95395.94;;;8.49;94.34
19590;BME280;12231;42.782;23.388;2023-03-21T05:06:05;95397.06;;;8.74;91.81
19590;BME280;12231;42.782;23.388;2023-03-21T05:08:33;95397.00;;;8.90;89.80
19590;BME280;12231;42.782;23.388;2023-03-21T05:10:59;95395.75;;;8.97;88.19
19590;BME280;12231;42.782;23.388;2023-03-21T05:13:24;95395.78;;;9.11;87.46
19590;BME280;12231;42.782;23.388;2023-03-21T05:15:49;95393.78;;;9.16;86.39
19590;BME280;12231;42.782;23.388;2023-03-21T05:18:15;95392.50;;;9.66;93.90
19590;BME280;12231;42.782;23.388;2023-03-21T05:20:49;95382.13;;;9.68;88.43
19590;BME280;12231;42.782;23.388;2023-03-21T05:23:20;95382.50;;;9.90;85.83
19590;BME280;12231;42.782;23.388;2023-03-21T05:25:46;95384.41;;;10.01;83.01
19590;BME280;12231;42.782;23.388;2023-03-21T05:28:11;95378.16;;;10.05;80.67
19590;BME280;12231;42.782;23.388;2023-03-21T05:30:36;95373.22;;;10.16;79.69
19590;BME280;12231;42.782;23.388;2023-03-21T05:33:02;95380.19;;;10.28;78.70
19590;BME280;12231;42.782;23.388;2023-03-21T05:35:28;95383.38;;;10.31;77.97
19590;BME280;12231;42.782;23.388;2023-03-21T05:37:53;95384.47;;;10.41;76.18
19590;BME280;12231;42.782;23.388;2023-03-21T05:40:19;95385.66;;;10.50;75.72
19590;BME280;12231;42.782;23.388;2023-03-21T05:42:46;95385.75;;;10.34;74.71
19590;BME280;12231;42.782;23.388;2023-03-21T05:45:13;95399.59;;;10.19;76.28
19590;BME280;12231;42.782;23.388;2023-03-21T05:47:38;95396.28;;;9.75;78.79
19590;BME280;12231;42.782;23.388;2023-03-21T05:50:04;95392.69;;;9.77;79.24
19590;BME280;12231;42.782;23.388;2023-03-21T05:52:31;95393.16;;;9.98;79.41
19590;BME280;12231;42.782;23.388;2023-03-21T05:54:56;95383.78;;;10.25;78.45
19590;BME280;12231;42.782;23.388;2023-03-21T05:57:22;95395.00;;;10.10;78.42
19590;BME280;12231;42.782;23.388;2023-03-21T05:59:48;95389.41;;;10.44;77.78
19590;BME280;12231;42.782;23.388;2023-03-21T06:02:13;95377.59;;;10.68;76.33
19590;BME280;12231;42.782;23.388;2023-03-21T06:04:38;95375.53;;;11.00;74.60
19590;BME280;12231;42.782;23.388;2023-03-21T06:07:04;95378.97;;;11.26;73.34
19590;BME280;12231;42.782;23.388;2023-03-21T06:09:29;95378.28;;;11.61;71.73
19590;BME280;12231;42.782;23.388;2023-03-21T06:11:56;95380.69;;;11.89;70.61
19590;BME280;12231;42.782;23.388;2023-03-21T06:14:22;95384.28;;;12.12;68.89
19590;BME280;12231;42.782;23.388;2023-03-21T06:16:48;95381.59;;;12.13;67.46
19590;BME280;12231;42.782;23.388;2023-03-21T06:19:15;95384.28;;;12.24;66.59
19590;BME280;12231;42.782;23.388;2023-03-21T06:21:41;95383.97;;;12.53;65.71
19590;BME280;12231;42.782;23.388;2023-03-21T06:24:06;95382.84;;;12.57;64.91
19590;BME280;12231;42.782;23.388;2023-03-21T06:26:32;95380.38;;;12.79;65.55
19590;BME280;12231;42.782;23.388;2023-03-21T06:28:58;95377.59;;;13.05;64.35
19590;BME280;12231;42.782;23.388;2023-03-21T06:31:23;95368.13;;;13.28;64.04
19590;BME280;12231;42.782;23.388;2023-03-21T06:33:50;95368.88;;;13.41;62.32
19590;BME280;12231;42.782;23.388;2023-03-21T06:36:16;95366.31;;;13.52;61.27
19590;BME280;12231;42.782;23.388;2023-03-21T06:38:42;95363.63;;;13.64;61.09
19590;BME280;12231;42.782;23.388;2023-03-21T06:41:07;95366.53;;;13.49;60.84
19590;BME280;12231;42.782;23.388;2023-03-21T06:43:33;95361.22;;;13.39;60.92
19590;BME280;12231;42.782;23.388;2023-03-21T06:45:59;95360.00;;;13.67;60.41
19590;BME280;12231;42.782;23.388;2023-03-21T06:48:25;95359.53;;;13.84;59.71
19590;BME280;12231;42.782;23.388;2023-03-21T06:50:52;95368.59;;;13.67;60.67
19590;BME280;12231;42.782;23.388;2023-03-21T06:53:20;95363.19;;;13.93;60.86
19590;BME280;12231;42.782;23.388;2023-03-21T06:55:52;95368.00;;;13.64;62.09
19590;BME280;12231;42.782;23.388;2023-03-21T06:58:19;95371.19;;;13.67;61.13
19590;BME280;12231;42.782;23.388;2023-03-21T07:00:45;95374.59;;;13.79;61.53
19590;BME280;12231;42.782;23.388;2023-03-21T07:03:11;95368.50;;;13.91;60.80
19590;BME280;12231;42.782;23.388;2023-03-21T07:05:37;95371.81;;;13.02;64.32
19590;BME280;12231;42.782;23.388;2023-03-21T07:08:03;95381.44;;;13.23;63.37
19590;BME280;12231;42.782;23.388;2023-03-21T07:10:29;95389.00;;;12.90;65.37
19590;BME280;12231;42.782;23.388;2023-03-21T07:12:54;95393.19;;;12.57;67.79
19590;BME280;12231;42.782;23.388;2023-03-21T07:15:20;95399.34;;;12.90;65.26
19590;BME280;12231;42.782;23.388;2023-03-21T07:17:46;95391.03;;;12.98;64.41
19590;BME280;12231;42.782;23.388;2023-03-21T07:20:11;95388.28;;;12.65;65.37
19590;BME280;12231;42.782;23.388;2023-03-21T07:22:37;95386.09;;;12.95;65.56
19590;BME280;12231;42.782;23.388;2023-03-21T07:25:04;95382.84;;;13.27;64.15
19590;BME280;12231;42.782;23.388;2023-03-21T07:27:30;95391.81;;;13.34;63.79
19590;BME280;12231;42.782;23.388;2023-03-21T07:29:55;95390.19;;;13.44;63.58
19590;BME280;12231;42.782;23.388;2023-03-21T07:32:21;95395.28;;;13.57;63.78
19590;BME280;12231;42.782;23.388;2023-03-21T07:34:46;95386.13;;;13.64;62.04
19590;BME280;12231;42.782;23.388;2023-03-21T07:37:12;95376.47;;;13.66;61.47
19590;BME280;12231;42.782;23.388;2023-03-21T07:39:37;95379.44;;;13.95;61.05
19590;BME280;12231;42.782;23.388;2023-03-21T07:42:03;95384.91;;;13.57;61.99
19590;BME280;12231;42.782;23.388;2023-03-21T07:44:28;95387.28;;;13.71;61.08
19590;BME280;12231;42.782;23.388;2023-03-21T07:46:55;95385.34;;;14.08;61.21
19590;BME280;12231;42.782;23.388;2023-03-21T07:49:20;95384.19;;;14.23;60.49
19590;BME280;12231;42.782;23.388;2023-03-21T07:51:46;95387.47;;;14.47;59.50
19590;BME280;12231;42.782;23.388;2023-03-21T07:54:11;95380.63;;;14.46;58.90
19590;BME280;12231;42.782;23.388;2023-03-21T07:56:37;95372.97;;;14.55;58.90
19590;BME280;12231;42.782;23.388;2023-03-21T07:59:02;95375.81;;;14.08;59.67
19590;BME280;12231;42.782;23.388;2023-03-21T08:01:29;95376.72;;;13.74;60.12
19590;BME280;12231;42.782;23.388;2023-03-21T08:03:55;95383.50;;;13.53;62.69
19590;BME280;12231;42.782;23.388;2023-03-21T08:06:20;95378.53;;;14.07;61.13
19590;BME280;12231;42.782;23.388;2023-03-21T08:08:46;95375.59;;;14.87;57.93
19590;BME280;12231;42.782;23.388;2023-03-21T08:11:12;95366.16;;;15.70;54.05
19590;BME280;12231;42.782;23.388;2023-03-21T08:13:38;95366.03;;;16.62;51.74
19590;BME280;12231;42.782;23.388;2023-03-21T08:16:04;95364.31;;;17.29;48.62
19590;BME280;12231;42.782;23.388;2023-03-21T08:18:30;95361.88;;;17.56;47.02
19590;BME280;12231;42.782;23.388;2023-03-21T08:20:56;95361.25;;;18.00;45.07
19590;BME280;12231;42.782;23.388;2023-03-21T08:23:22;95357.41;;;18.41;44.38
19590;BME280;12231;42.782;23.388;2023-03-21T08:25:55;95349.34;;;18.61;43.78
19590;BME280;12231;42.782;23.388;2023-03-21T08:28:22;95354.56;;;17.78;45.92
19590;BME280;12231;42.782;23.388;2023-03-21T08:30:48;95346.78;;;17.50;45.46
19590;BME280;12231;42.782;23.388;2023-03-21T08:33:14;95351.28;;;17.67;45.90
19590;BME280;12231;42.782;23.388;2023-03-21T08:35:40;95345.59;;;18.64;45.21
19590;BME280;12231;42.782;23.388;2023-03-21T08:38:05;95343.38;;;19.31;43.18
19590;BME280;12231;42.782;23.388;2023-03-21T08:40:31;95339.00;;;19.57;41.61
19590;BME280;12231;42.782;23.388;2023-03-21T08:42:57;95339.47;;;19.53;41.56
19590;BME280;12231;42.782;23.388;2023-03-21T08:45:23;95339.44;;;19.96;40.58
19590;BME280;12231;42.782;23.388;2023-03-21T08:47:49;95334.63;;;19.58;40.18
19590;BME280;12231;42.782;23.388;2023-03-21T08:50:18;95333.31;;;19.62;40.88
19590;BME280;12231;42.782;23.388;2023-03-21T08:52:43;95344.50;;;19.29;40.85
19590;BME280;12231;42.782;23.388;2023-03-21T08:55:10;95350.88;;;17.14;45.23
19590;BME280;12231;42.782;23.388;2023-03-21T08:57:36;95353.75;;;16.83;47.79
19590;BME280;12231;42.782;23.388;2023-03-21T09:00:03;95352.38;;;17.74;44.82
19590;BME280;12231;42.782;23.388;2023-03-21T09:02:35;95352.81;;;17.60;44.75
19590;BME280;12231;42.782;23.388;2023-03-21T09:05:00;95352.41;;;17.55;45.10
19590;BME280;12231;42.782;23.388;2023-03-21T09:07:26;95345.81;;;17.13;46.98
19590;BME280;12231;42.782;23.388;2023-03-21T09:09:52;95341.94;;;17.64;45.70
19590;BME280;12231;42.782;23.388;2023-03-21T09:12:19;95334.03;;;17.09;47.29
19590;BME280;12231;42.782;23.388;2023-03-21T09:14:44;95333.47;;;17.24;46.10
19590;BME280;12231;42.782;23.388;2023-03-21T09:17:09;95330.59;;;17.18;47.13
19590;BME280;12231;42.782;23.388;2023-03-21T09:19:35;95327.09;;;17.84;45.91
19590;BME280;12231;42.782;23.388;2023-03-21T09:22:03;95327.66;;;17.78;45.17
19590;BME280;12231;42.782;23.388;2023-03-21T09:24:29;95329.78;;;17.46;46.22
19590;BME280;12231;42.782;23.388;2023-03-21T09:26:55;95326.22;;;18.03;44.67
19590;BME280;12231;42.782;23.388;2023-03-21T09:29:21;95320.72;;;17.50;45.93
19590;BME280;12231;42.782;23.388;2023-03-21T09:31:47;95310.31;;;17.96;44.11
19590;BME280;12231;42.782;23.388;2023-03-21T09:34:13;95312.88;;;18.06;43.51
19590;BME280;12231;42.782;23.388;2023-03-21T09:36:41;95317.34;;;17.86;44.60
19590;BME280;12231;42.782;23.388;2023-03-21T09:39:08;95314.69;;;17.96;44.70
19590;BME280;12231;42.782;23.388;2023-03-21T09:47:19;95295.41;;;18.16;44.02
19590;BME280;12231;42.782;23.388;2023-03-21T09:50:00;95282.84;;;18.02;44.06
19590;BME280;12231;42.782;23.388;2023-03-21T09:55:30;95274.69;;;18.68;43.65
19590;BME280;12231;42.782;23.388;2023-03-21T09:58:26;95279.38;;;18.11;44.94
19590;BME280;12231;42.782;23.388;2023-03-21T10:01:08;95278.03;;;17.60;45.97
19590;BME280;12231;42.782;23.388;2023-03-21T10:03:47;95275.03;;;18.02;44.74
19590;BME280;12231;42.782;23.388;2023-03-21T10:06:15;95265.56;;;18.28;44.67
19590;BME280;12231;42.782;23.388;2023-03-21T10:08:44;95268.56;;;17.69;43.38
19590;BME280;12231;42.782;23.388;2023-03-21T10:11:27;95278.63;;;18.18;43.69
19590;BME280;12231;42.782;23.388;2023-03-21T10:14:02;95274.97;;;17.74;44.52
19590;BME280;12231;42.782;23.388;2023-03-21T10:16:34;95281.88;;;17.66;45.28
19590;BME280;12231;42.782;23.388;2023-03-21T10:19:05;95276.00;;;17.35;44.89
19590;BME280;12231;42.782;23.388;2023-03-21T10:21:37;95267.25;;;17.27;46.65
19590;BME280;12231;42.782;23.388;2023-03-21T10:24:03;95262.97;;;17.35;46.81
19590;BME280;12231;42.782;23.388;2023-03-21T10:26:30;95255.34;;;17.80;46.57
19590;BME280;12231;42.782;23.388;2023-03-21T10:28:58;95255.59;;;18.14;46.39
19590;BME280;12231;42.782;23.388;2023-03-21T10:31:27;95246.41;;;18.81;44.31
19590;BME280;12231;42.782;23.388;2023-03-21T10:33:55;95247.59;;;19.48;42.58
19590;BME280;12231;42.782;23.388;2023-03-21T10:36:25;95247.94;;;20.12;42.11
19590;BME280;12231;42.782;23.388;2023-03-21T10:38:54;95241.34;;;21.07;39.56
19590;BME280;12231;42.782;23.388;2023-03-21T10:41:20;95241.31;;;22.18;37.91
19590;BME280;12231;42.782;23.388;2023-03-21T10:44:03;95237.41;;;23.06;36.31
19590;BME280;12231;42.782;23.388;2023-03-21T10:46:28;95230.81;;;23.25;35.58
19590;BME280;12231;42.782;23.388;2023-03-21T10:48:54;95239.00;;;23.52;33.50
19590;BME280;12231;42.782;23.388;2023-03-21T10:51:27;95240.13;;;23.13;34.46
19590;BME280;12231;42.782;23.388;2023-03-21T10:53:57;95235.41;;;24.41;33.00
19590;BME280;12231;42.782;23.388;2023-03-21T10:56:28;95241.00;;;24.02;33.16
19590;BME280;12231;42.782;23.388;2023-03-21T10:58:58;95234.25;;;23.48;33.42
19590;BME280;12231;42.782;23.388;2023-03-21T11:01:33;95242.31;;;21.38;38.00
19590;BME280;12231;42.782;23.388;2023-03-21T11:04:06;95243.41;;;21.60;36.34
19590;BME280;12231;42.782;23.388;2023-03-21T11:06:37;95238.25;;;22.07;34.63
19590;BME280;12231;42.782;23.388;2023-03-21T11:09:18;95235.78;;;21.97;35.40
19590;BME280;12231;42.782;23.388;2023-03-21T11:14:36;95228.19;;;21.47;36.15
19590;BME280;12231;42.782;23.388;2023-03-21T11:17:17;95224.44;;;21.02;36.40
19590;BME280;12231;42.782;23.388;2023-03-21T11:22:28;95214.72;;;22.21;35.21
19590;BME280;12231;42.782;23.388;2023-03-21T11:25:03;95213.06;;;21.82;36.08
19590;BME280;12231;42.782;23.388;2023-03-21T11:27:30;95202.56;;;21.65;35.45
19590;BME280;12231;42.782;23.388;2023-03-21T11:29:57;95192.72;;;22.22;36.04
19590;BME280;12231;42.782;23.388;2023-03-21T11:32:35;95193.84;;;22.28;34.95
19590;BME280;12231;42.782;23.388;2023-03-21T11:35:15;95177.13;;;22.21;34.89
19590;BME280;12231;42.782;23.388;2023-03-21T11:37:45;95177.97;;;22.44;34.24
19590;BME280;12231;42.782;23.388;2023-03-21T11:40:27;95185.97;;;23.03;33.76
19590;BME280;12231;42.782;23.388;2023-03-21T11:43:01;95170.28;;;22.12;34.88
19590;BME280;12231;42.782;23.388;2023-03-21T11:45:27;95166.88;;;22.34;35.10
19590;BME280;12231;42.782;23.388;2023-03-21T11:47:55;95159.34;;;22.31;35.02
19590;BME280;12231;42.782;23.388;2023-03-21T12:01:02;95151.78;;;21.50;37.14
19590;BME280;12231;42.782;23.388;2023-03-21T12:06:04;95152.84;;;21.17;37.31
19590;BME280;12231;42.782;23.388;2023-03-21T12:08:45;95152.84;;;21.25;36.89
19590;BME280;12231;42.782;23.388;2023-03-21T12:11:33;95144.19;;;21.63;35.82
19590;BME280;12231;42.782;23.388;2023-03-21T12:14:10;95146.00;;;21.79;35.75
19590;BME280;12231;42.782;23.388;2023-03-21T12:25:06;95131.78;;;21.49;35.97
19590;BME280;12231;42.782;23.388;2023-03-21T12:33:47;95124.16;;;22.40;34.15
19590;BME280;12231;42.782;23.388;2023-03-21T12:39:46;95120.69;;;21.86;35.39
19590;BME280;12231;42.782;23.388;2023-03-21T12:44:54;95118.50;;;21.51;35.21
19590;BME280;12231;42.782;23.388;2023-03-21T12:47:25;95102.47;;;21.46;35.34
19590;BME280;12231;42.782;23.388;2023-03-21T12:50:07;95104.78;;;21.33;35.92
19590;BME280;12231;42.782;23.388;2023-03-21T12:52:41;95099.31;;;21.50;36.28
19590;BME280;12231;42.782;23.388;2023-03-21T12:55:43;95097.59;;;21.73;35.36
19590;BME280;12231;42.782;23.388;2023-03-21T12:58:18;95092.56;;;21.09;36.89
19590;BME280;12231;42.782;23.388;2023-03-21T13:00:50;95089.47;;;21.52;35.63
19590;BME280;12231;42.782;23.388;2023-03-21T13:06:04;95090.75;;;21.18;35.76
19590;BME280;12231;42.782;23.388;2023-03-21T13:11:03;95088.22;;;19.80;38.18
19590;BME280;12231;42.782;23.388;2023-03-21T13:13:33;95078.47;;;20.06;37.25
19590;BME280;12231;42.782;23.388;2023-03-21T13:16:19;95084.00;;;19.87;36.96
19590;BME280;12231;42.782;23.388;2023-03-21T13:24:48;95070.94;;;20.03;37.51
19590;BME280;12231;42.782;23.388;2023-03-21T13:27:36;95064.88;;;20.02;37.80
19590;BME280;12231;42.782;23.388;2023-03-21T13:30:24;95067.81;;;19.99;38.91
19590;BME280;12231;42.782;23.388;2023-03-21T13:33:06;95071.22;;;19.34;39.87
19590;BME280;12231;42.782;23.388;2023-03-21T13:35:39;95072.66;;;19.03;40.07
19590;BME280;12231;42.782;23.388;2023-03-21T13:38:24;95078.69;;;18.95;39.38
19590;BME280;12231;42.782;23.388;2023-03-21T13:43:43;95074.25;;;18.70;40.50
19590;BME280;12231;42.782;23.388;2023-03-21T13:51:49;95065.16;;;18.49;41.55
19590;BME280;12231;42.782;23.388;2023-03-21T13:54:52;95058.81;;;18.34;41.33
19590;BME280;12231;42.782;23.388;2023-03-21T14:00:16;95060.16;;;18.81;40.93
19590;BME280;12231;42.782;23.388;2023-03-21T14:03:11;95059.56;;;18.95;41.12
19590;BME280;12231;42.782;23.388;2023-03-21T14:05:38;95060.31;;;18.79;40.61
19590;BME280;12231;42.782;23.388;2023-03-21T14:08:06;95059.72;;;18.42;40.91
19590;BME280;12231;42.782;23.388;2023-03-21T14:10:34;95052.28;;;18.38;42.24
19590;BME280;12231;42.782;23.388;2023-03-21T14:13:04;95055.34;;;18.51;42.29
19590;BME280;12231;42.782;23.388;2023-03-21T14:15:43;95049.19;;;18.52;40.97
19590;BME280;12231;42.782;23.388;2023-03-21T14:18:15;95043.66;;;18.37;41.58
19590;BME280;12231;42.782;23.388;2023-03-21T14:20:40;95054.69;;;18.31;42.20
19590;BME280;12231;42.782;23.388;2023-03-21T14:23:14;95052.72;;;18.08;43.07
19590;BME280;12231;42.782;23.388;2023-03-21T14:25:42;95048.97;;;18.28;43.58
19590;BME280;12231;42.782;23.388;2023-03-21T14:28:23;95058.59;;;18.27;43.70
19590;BME280;12231;42.782;23.388;2023-03-21T14:30:51;95048.53;;;17.97;44.52
19590;BME280;12231;42.782;23.388;2023-03-21T14:33:32;95047.56;;;18.16;43.74
19590;BME280;12231;42.782;23.388;2023-03-21T14:36:05;95041.25;;;17.83;44.18
19590;BME280;12231;42.782;23.388;2023-03-21T14:38:35;95038.63;;;17.83;44.52
19590;BME280;12231;42.782;23.388;2023-03-21T14:41:01;95044.22;;;17.88;45.25
19590;BME280;12231;42.782;23.388;2023-03-21T14:43:27;95046.00;;;17.70;45.94